WXM80 ListenWXM80 Stop

You find our weather info also at:

UK Metoffice

WeatherCloud

Weather Underground

Northeastern Weather Network

AWEKAS

Citizen Weather Observer Program (CWOP)

HAMweather, WeatherForYou, PWS Weather


Weather Underground History page Text

Daily Summary for October 17, 2016 Units:  English    Metric   Both
« Previous Day
Next Day »
Daily Weekly Monthly Yearly Custom
  High: Low: Average:
Temperature: 77.1 °F 62.5 °F 68.3 °F
Dew Point: 66.7 °F 59.0 °F 62.5 °F
Humidity: 91 % 67 % 82 %
Wind Speed: 5.5 mph 0.0 mph 1.1 mph
Wind Gust: 10.0 mph - -
Wind:- - SSW
Pressure: 29.97 in 29.82 in -
Precipitation: 0.00 in    
Historical Graphs
 
 
Tabular Data for October 17, 2016
Time Temperature Dew Point Pressure Wind Wind Speed Wind Gust Humidity Rainfall Rate (Hourly)
00:04 63.6 °F 59.3 °F 29.97 in SW 4.5 mph 6.9 mph 86 % 0.00 in
00:09 63.5 °F 59.2 °F 29.97 in WSW 5.4 mph 9.2 mph 86 % 0.00 in
00:14 63.5 °F 59.6 °F 29.96 in SW 2.7 mph 5.8 mph 87 % 0.00 in
00:19 63.4 °F 59.5 °F 29.96 in SSW 2.5 mph 5.0 mph 87 % 0.00 in
00:24 63.4 °F 59.5 °F 29.96 in WSW 0.5 mph 3.5 mph 87 % 0.00 in
00:30 63.4 °F 59.5 °F 29.96 in SW 1.6 mph 3.5 mph 87 % 0.00 in
00:35 63.3 °F 59.4 °F 29.95 in SSW 3.3 mph 6.9 mph 87 % 0.00 in
00:40 63.2 °F 59.3 °F 29.96 in SSW 3.3 mph 8.1 mph 87 % 0.00 in
00:50 63.2 °F 59.3 °F 29.97 in WSW 2.3 mph 8.0 mph 87 % 0.00 in
00:55 63.1 °F 59.2 °F 29.97 in SSW 4.1 mph 6.0 mph 87 % 0.00 in
01:00 63.1 °F 59.5 °F 29.97 in SW 5.5 mph 10.0 mph 88 % 0.00 in
01:05 63.2 °F 59.6 °F 29.97 in WSW 1.0 mph 5.8 mph 88 % 0.00 in
01:10 63.2 °F 59.6 °F 29.97 in West 1.4 mph 5.8 mph 88 % 0.00 in
01:15 63.2 °F 59.3 °F 29.96 in SSW 4.1 mph 6.9 mph 87 % 0.00 in
01:21 63.2 °F 59.2 °F 29.97 in SW 2.0 mph 8.0 mph 87 % 0.00 in
01:26 63.1 °F 59.2 °F 29.97 in SW 3.0 mph 7.0 mph 87 % 0.00 in
01:31 63.1 °F 59.5 °F 29.97 in SW 2.0 mph 6.0 mph 88 % 0.00 in
01:36 63.1 °F 59.5 °F 29.96 in WSW 2.0 mph 6.0 mph 88 % 0.00 in
01:41 63.0 °F 59.4 °F 29.96 in SW 3.0 mph 8.0 mph 88 % 0.00 in
01:46 63.0 °F 59.4 °F 29.96 in SW 2.0 mph 9.0 mph 88 % 0.00 in
01:51 63.0 °F 59.4 °F 29.96 in WSW 3.0 mph 9.0 mph 88 % 0.00 in
01:56 62.9 °F 59.3 °F 29.95 in SSW 4.0 mph 6.9 mph 88 % 0.00 in
02:01 63.0 °F 59.4 °F 29.95 in SW 1.5 mph 5.8 mph 88 % 0.00 in
02:06 62.9 °F 59.3 °F 29.95 in South 3.0 mph 6.0 mph 88 % 0.00 in
02:11 63.0 °F 59.4 °F 29.95 in SW 2.4 mph 4.6 mph 88 % 0.00 in
02:16 63.0 °F 59.4 °F 29.94 in WSW 3.9 mph 5.8 mph 88 % 0.00 in
02:21 63.0 °F 59.4 °F 29.94 in SW 1.2 mph 4.6 mph 88 % 0.00 in
02:26 63.0 °F 59.4 °F 29.94 in WSW 2.3 mph 3.5 mph 88 % 0.00 in
02:31 63.0 °F 59.1 °F 29.94 in SW 4.0 mph 6.9 mph 87 % 0.00 in
02:36 63.1 °F 59.2 °F 29.94 in SW 4.0 mph 8.1 mph 87 % 0.00 in
02:41 63.1 °F 59.2 °F 29.94 in SSW 3.2 mph 6.9 mph 87 % 0.00 in
02:47 63.2 °F 59.3 °F 29.93 in SSW 3.0 mph 5.8 mph 87 % 0.00 in
02:52 63.2 °F 59.3 °F 29.93 in SSW 4.0 mph 5.8 mph 87 % 0.00 in
02:57 63.3 °F 59.4 °F 29.93 in West 3.7 mph 6.9 mph 87 % 0.00 in
03:02 63.4 °F 59.5 °F 29.93 in SSW 2.5 mph 5.8 mph 87 % 0.00 in
03:07 63.5 °F 59.6 °F 29.93 in WSW 2.1 mph 4.0 mph 87 % 0.00 in
03:12 63.5 °F 59.6 °F 29.93 in West 1.2 mph 3.5 mph 87 % 0.00 in
03:17 63.5 °F 59.2 °F 29.93 in WSW 1.2 mph 3.5 mph 86 % 0.00 in
03:22 63.5 °F 59.2 °F 29.93 in WSW 1.4 mph 3.5 mph 86 % 0.00 in
03:27 63.5 °F 59.2 °F 29.92 in SSW 2.8 mph 3.5 mph 86 % 0.00 in
03:37 63.5 °F 59.2 °F 29.93 in WSW 0.1 mph 1.2 mph 86 % 0.00 in
03:42 63.5 °F 59.2 °F 29.93 in WSW 0.2 mph   86 % 0.00 in
03:47 63.4 °F 59.1 °F 29.92 in SW 1.6 mph 2.0 mph 86 % 0.00 in
03:53 63.4 °F 59.1 °F 29.92 in WSW 0.3 mph 2.3 mph 86 % 0.00 in
03:58 63.3 °F 59.0 °F 29.92 in WSW 0.1 mph 2.3 mph 86 % 0.00 in
04:03 63.3 °F 59.4 °F 29.92 in WSW 0.7 mph 3.0 mph 87 % 0.00 in
04:08 63.2 °F 59.3 °F 29.92 in WSW 1.9 mph 3.5 mph 87 % 0.00 in
04:13 63.2 °F 59.3 °F 29.92 in WSW 1.4 mph 3.5 mph 87 % 0.00 in
04:18 63.2 °F 59.3 °F 29.92 in SW 1.7 mph 4.6 mph 87 % 0.00 in
04:23 63.1 °F 59.2 °F 29.92 in SW 1.2 mph 2.3 mph 87 % 0.00 in
04:28 63.1 °F 59.2 °F 29.92 in SW 0.3 mph 2.0 mph 87 % 0.00 in
04:33 63.0 °F 59.1 °F 29.92 in SW 1.8 mph 2.3 mph 87 % 0.00 in
04:38 62.9 °F 59.0 °F 29.92 in WSW 1.5 mph 2.3 mph 87 % 0.00 in
04:44 62.9 °F 59.3 °F 29.92 in WSW 1.0 mph 2.0 mph 88 % 0.00 in
04:49 62.8 °F 59.2 °F 29.92 in SW 0.9 mph 2.3 mph 88 % 0.00 in
04:54 62.8 °F 59.2 °F 29.92 in WSW 0.3 mph 1.2 mph 88 % 0.00 in
04:59 62.7 °F 59.1 °F 29.92 in WSW 1.1 mph 3.5 mph 88 % 0.00 in
05:04 62.7 °F 59.1 °F 29.92 in SW 2.0 mph 3.5 mph 88 % 0.00 in
05:14 62.6 °F 59.3 °F 29.92 in SW 1.9 mph 3.5 mph 89 % 0.00 in
05:19 62.6 °F 59.3 °F 29.92 in WSW 2.1 mph 4.0 mph 89 % 0.00 in
05:24 62.6 °F 59.3 °F 29.92 in SW 3.8 mph 6.9 mph 89 % 0.00 in
05:29 62.5 °F 59.2 °F 29.92 in WSW 2.3 mph 5.8 mph 89 % 0.00 in
05:35 62.6 °F 59.3 °F 29.92 in SW 4.2 mph 6.9 mph 89 % 0.00 in
05:40 62.6 °F 59.3 °F 29.92 in SW 3.4 mph 4.0 mph 89 % 0.00 in
05:45 62.7 °F 59.4 °F 29.92 in SW 2.2 mph 6.9 mph 89 % 0.00 in
05:50 62.7 °F 59.4 °F 29.92 in SW 1.9 mph 4.0 mph 89 % 0.00 in
05:55 62.7 °F 59.4 °F 29.92 in SW 2.1 mph 4.0 mph 89 % 0.00 in
06:00 62.8 °F 59.5 °F 29.92 in SSW 2.5 mph 3.5 mph 89 % 0.00 in
06:05 62.9 °F 59.6 °F 29.92 in SW 2.9 mph 3.5 mph 89 % 0.00 in
06:10 62.9 °F 59.6 °F 29.92 in SW 1.5 mph 3.5 mph 89 % 0.00 in
06:15 62.9 °F 59.6 °F 29.92 in SW 2.1 mph 4.0 mph 89 % 0.00 in
06:20 62.9 °F 59.6 °F 29.92 in SW 3.0 mph 5.8 mph 89 % 0.00 in
06:26 63.0 °F 59.7 °F 29.92 in SW 1.0 mph 4.0 mph 89 % 0.00 in
06:31 63.0 °F 59.7 °F 29.92 in WSW 2.8 mph 4.0 mph 89 % 0.00 in
06:36 63.1 °F 59.8 °F 29.92 in SW 3.0 mph 8.0 mph 89 % 0.00 in
06:41 63.1 °F 59.8 °F 29.92 in SW 1.0 mph 5.0 mph 89 % 0.00 in
06:46 63.1 °F 59.8 °F 29.91 in SSW 1.2 mph 3.5 mph 89 % 0.00 in
06:51 63.1 °F 59.8 °F 29.91 in SW 1.0 mph 4.0 mph 89 % 0.00 in
06:56 63.2 °F 59.9 °F 29.91 in SW 1.0 mph 4.0 mph 89 % 0.00 in
07:01 63.2 °F 59.9 °F 29.91 in SW 0.8 mph 3.5 mph 89 % 0.00 in
07:06 63.2 °F 59.9 °F 29.91 in Calm   4.0 mph 89 % 0.00 in
07:11 63.2 °F 59.9 °F 29.91 in Calm   3.0 mph 89 % 0.00 in
07:16 63.2 °F 59.9 °F 29.92 in Calm     89 % 0.00 in
07:21 63.2 °F 59.9 °F 29.92 in Calm   1.0 mph 89 % 0.00 in
07:26 63.2 °F 59.9 °F 29.92 in Calm     89 % 0.00 in
07:31 63.2 °F 59.9 °F 29.92 in SW 0.9 mph 1.2 mph 89 % 0.00 in
07:36 63.1 °F 59.8 °F 29.92 in Calm   3.0 mph 89 % 0.00 in
07:41 63.1 °F 59.8 °F 29.92 in Calm     89 % 0.00 in
07:46 63.1 °F 59.8 °F 29.92 in Calm   1.0 mph 89 % 0.00 in
07:51 63.1 °F 59.8 °F 29.92 in Calm   1.0 mph 89 % 0.00 in
07:56 63.1 °F 59.8 °F 29.92 in Calm   1.0 mph 89 % 0.00 in
08:01 63.1 °F 59.8 °F 29.92 in Calm     89 % 0.00 in
08:11 63.1 °F 59.8 °F 29.93 in SW 0.1 mph 1.2 mph 89 % 0.00 in
08:21 63.1 °F 59.8 °F 29.93 in SW 1.5 mph 2.3 mph 89 % 0.00 in
08:26 63.1 °F 59.8 °F 29.93 in SW 0.7 mph 2.3 mph 89 % 0.00 in
08:31 63.1 °F 60.1 °F 29.93 in Calm     90 % 0.00 in
08:36 63.1 °F 60.1 °F 29.93 in Calm     90 % 0.00 in
08:41 63.1 °F 60.1 °F 29.93 in Calm     90 % 0.00 in
08:46 63.2 °F 60.2 °F 29.93 in Calm   1.2 mph 90 % 0.00 in
08:52 63.3 °F 60.3 °F 29.93 in SSE 1.8 mph 2.3 mph 90 % 0.00 in
08:57 63.4 °F 60.7 °F 29.93 in South 1.0 mph 3.5 mph 91 % 0.00 in
09:02 63.5 °F 60.8 °F 29.93 in SW 2.7 mph 5.8 mph 91 % 0.00 in
09:07 63.6 °F 60.9 °F 29.93 in WSW 2.8 mph 5.8 mph 91 % 0.00 in
09:12 63.8 °F 60.8 °F 29.93 in WSW 0.5 mph 3.5 mph 90 % 0.00 in
09:17 64.0 °F 61.0 °F 29.93 in SW 2.1 mph 3.5 mph 90 % 0.00 in
09:22 64.3 °F 61.3 °F 29.93 in SW 2.0 mph 3.5 mph 90 % 0.00 in
09:27 64.6 °F 61.3 °F 29.94 in WSW 0.1 mph 3.5 mph 89 % 0.00 in
09:32 64.9 °F 61.6 °F 29.93 in Calm   1.2 mph 89 % 0.00 in
09:37 65.3 °F 62.0 °F 29.93 in SW 1.6 mph 2.3 mph 89 % 0.00 in
09:43 65.6 °F 61.9 °F 29.94 in WNW 0.5 mph 3.5 mph 88 % 0.00 in
09:48 66.0 °F 62.3 °F 29.94 in Calm   1.2 mph 88 % 0.00 in
09:53 66.4 °F 62.4 °F 29.94 in WNW 2.8 mph 5.8 mph 87 % 0.00 in
09:58 66.8 °F 62.5 °F 29.94 in West 2.1 mph 4.6 mph 86 % 0.00 in
10:03 67.4 °F 62.7 °F 29.94 in SW 3.4 mph 4.0 mph 85 % 0.00 in
10:08 67.9 °F 63.2 °F 29.93 in WSW 1.0 mph 3.5 mph 85 % 0.00 in
10:13 68.4 °F 63.4 °F 29.93 in WSW 0.8 mph 3.5 mph 84 % 0.00 in
10:18 69.0 °F 63.3 °F 29.93 in WSW 1.0 mph 3.5 mph 82 % 0.00 in
10:23 69.5 °F 63.1 °F 29.93 in ESE 0.2 mph 3.5 mph 80 % 0.00 in
10:28 70.0 °F 63.5 °F 29.93 in SSE 3.7 mph 4.6 mph 80 % 0.00 in
10:34 70.4 °F 63.6 °F 29.93 in WSW 2.5 mph 4.0 mph 79 % 0.00 in
10:39 70.6 °F 63.8 °F 29.93 in Calm     79 % 0.00 in
10:44 70.8 °F 64.0 °F 29.93 in WSW 0.8 mph 2.3 mph 79 % 0.00 in
10:49 71.0 °F 64.2 °F 29.93 in WSW 1.6 mph 5.0 mph 79 % 0.00 in
10:54 71.1 °F 63.9 °F 29.93 in WSW 0.1 mph 2.3 mph 78 % 0.00 in
10:59 71.3 °F 64.1 °F 29.92 in SW 0.1 mph 2.3 mph 78 % 0.00 in
11:04 71.5 °F 63.9 °F 29.92 in SW 0.1 mph 2.3 mph 77 % 0.00 in
11:09 71.9 °F 65.0 °F 29.92 in Calm   1.2 mph 79 % 0.00 in
11:14 72.1 °F 65.2 °F 29.92 in NNE 0.3 mph 1.0 mph 79 % 0.00 in
11:19 72.6 °F 66.1 °F 29.92 in NNE 0.5 mph 1.2 mph 80 % 0.00 in
11:25 73.4 °F 66.1 °F 29.92 in NNE 3.0 mph 3.5 mph 78 % 0.00 in
11:30 73.9 °F 65.9 °F 29.92 in North 1.8 mph 3.5 mph 76 % 0.00 in
11:35 74.3 °F 65.9 °F 29.91 in NNW 0.6 mph 2.3 mph 75 % 0.00 in
11:40 74.8 °F 66.0 °F 29.91 in North 1.5 mph 3.5 mph 74 % 0.00 in
11:45 75.6 °F 66.7 °F 29.91 in North 0.5 mph 2.3 mph 74 % 0.00 in
11:50 76.0 °F 66.3 °F 29.91 in ENE 2.5 mph 3.5 mph 72 % 0.00 in
11:55 75.6 °F 65.5 °F 29.91 in ENE 0.6 mph 2.3 mph 71 % 0.00 in
12:05 74.6 °F 65.4 °F 29.91 in NNE 1.5 mph 4.0 mph 73 % 0.00 in
12:10 74.3 °F 65.5 °F 29.91 in NNE 0.9 mph 2.0 mph 74 % 0.00 in
12:16 73.9 °F 65.5 °F 29.91 in Calm   3.0 mph 75 % 0.00 in
12:21 73.7 °F 64.9 °F 29.91 in Calm   3.0 mph 74 % 0.00 in
12:26 73.5 °F 65.1 °F 29.91 in Calm   3.0 mph 75 % 0.00 in
12:31 73.3 °F 64.9 °F 29.91 in Calm   2.0 mph 75 % 0.00 in
12:36 73.1 °F 65.1 °F 29.91 in North 1.0 mph 2.0 mph 76 % 0.00 in
12:41 73.0 °F 65.4 °F 29.90 in Calm   1.0 mph 77 % 0.00 in
12:46 72.9 °F 65.3 °F 29.90 in Calm   1.0 mph 77 % 0.00 in
12:51 73.0 °F 65.4 °F 29.90 in NW 0.1 mph 1.2 mph 77 % 0.00 in
12:56 73.4 °F 65.7 °F 29.90 in Calm   1.0 mph 77 % 0.00 in
13:01 73.7 °F 66.0 °F 29.89 in Calm     77 % 0.00 in
13:06 73.7 °F 65.3 °F 29.89 in NW 1.0 mph 2.3 mph 75 % 0.00 in
13:11 73.6 °F 65.2 °F 29.88 in Calm   1.2 mph 75 % 0.00 in
13:16 73.8 °F 65.8 °F 29.88 in NW 0.5 mph 2.3 mph 76 % 0.00 in
13:21 74.1 °F 65.7 °F 29.88 in Calm   1.0 mph 75 % 0.00 in
13:26 74.6 °F 66.1 °F 29.87 in NW 0.1 mph 1.2 mph 75 % 0.00 in
13:31 75.0 °F 66.1 °F 29.87 in Calm   1.0 mph 74 % 0.00 in
13:36 75.5 °F 66.2 °F 29.87 in Calm     73 % 0.00 in
13:41 75.7 °F 65.2 °F 29.87 in North 1.2 mph 2.3 mph 70 % 0.00 in
13:46 75.8 °F 65.3 °F 29.86 in North 0.9 mph 3.5 mph 70 % 0.00 in
13:52 75.8 °F 64.9 °F 29.86 in ENE 2.0 mph 3.5 mph 69 % 0.00 in
13:57 75.4 °F 65.3 °F 29.86 in ENE 1.5 mph 3.5 mph 71 % 0.00 in
14:02 75.2 °F 64.7 °F 29.86 in ENE 1.7 mph 3.5 mph 70 % 0.00 in
14:07 75.3 °F 65.6 °F 29.86 in NNE 2.1 mph 3.5 mph 72 % 0.00 in
14:12 75.3 °F 64.8 °F 29.86 in North 1.8 mph 4.0 mph 70 % 0.00 in
14:17 75.2 °F 65.1 °F 29.86 in NE 1.0 mph 3.5 mph 71 % 0.00 in
14:22 75.4 °F 65.3 °F 29.86 in NNE 0.6 mph 2.3 mph 71 % 0.00 in
14:27 75.3 °F 65.2 °F 29.86 in NNE 0.9 mph 3.5 mph 71 % 0.00 in
14:32 75.2 °F 64.7 °F 29.86 in NE 0.8 mph 2.3 mph 70 % 0.00 in
14:37 75.2 °F 66.3 °F 29.85 in Calm   1.2 mph 74 % 0.00 in
14:42 75.3 °F 66.0 °F 29.85 in Calm   2.3 mph 73 % 0.00 in
14:48 75.4 °F 66.1 °F 29.85 in Calm   1.2 mph 73 % 0.00 in
14:53 75.5 °F 66.2 °F 29.85 in NE 0.8 mph 1.2 mph 73 % 0.00 in
14:58 75.5 °F 65.4 °F 29.84 in NE 0.1 mph 1.2 mph 71 % 0.00 in
15:03 75.5 °F 65.4 °F 29.84 in NE 2.0 mph 3.5 mph 71 % 0.00 in
15:08 75.5 °F 65.8 °F 29.84 in NE 0.2 mph 1.2 mph 72 % 0.00 in
15:13 75.4 °F 65.7 °F 29.84 in NE 1.7 mph 3.5 mph 72 % 0.00 in
15:18 75.4 °F 66.1 °F 29.84 in NE 0.1 mph 1.2 mph 73 % 0.00 in
15:23 75.3 °F 66.0 °F 29.84 in NE 0.8 mph 3.5 mph 73 % 0.00 in
15:28 75.2 °F 66.3 °F 29.84 in NNE 0.9 mph 3.5 mph 74 % 0.00 in
15:33 75.2 °F 66.3 °F 29.84 in SE 0.5 mph 3.5 mph 74 % 0.00 in
15:39 75.3 °F 65.6 °F 29.84 in SSE 0.9 mph 2.3 mph 72 % 0.00 in
15:44 75.7 °F 65.6 °F 29.84 in SSE 0.7 mph 3.5 mph 71 % 0.00 in
15:49 76.0 °F 65.9 °F 29.84 in SSW 1.1 mph 3.5 mph 71 % 0.00 in
15:54 76.2 °F 65.7 °F 29.84 in SW 1.0 mph 3.5 mph 70 % 0.00 in
15:59 76.5 °F 65.6 °F 29.83 in SW 0.9 mph 3.0 mph 69 % 0.00 in
16:04 76.7 °F 65.3 °F 29.83 in SW 2.7 mph 8.1 mph 68 % 0.00 in
16:09 76.9 °F 65.1 °F 29.83 in SW 0.1 mph 1.2 mph 67 % 0.00 in
16:14 77.1 °F 65.7 °F 29.83 in SSW 3.2 mph 4.6 mph 68 % 0.00 in
16:19 77.1 °F 65.3 °F 29.83 in Calm   1.2 mph 67 % 0.00 in
16:24 77.1 °F 65.3 °F 29.83 in SW 0.4 mph 3.5 mph 67 % 0.00 in
16:30 77.0 °F 65.2 °F 29.83 in Calm     67 % 0.00 in
16:35 77.0 °F 65.2 °F 29.82 in SW 0.6 mph 6.9 mph 67 % 0.00 in
16:40 76.8 °F 65.0 °F 29.82 in SW 0.8 mph 3.5 mph 67 % 0.00 in
16:45 76.7 °F 64.9 °F 29.82 in Calm   2.3 mph 67 % 0.00 in
16:50 76.6 °F 64.8 °F 29.82 in SSE 0.2 mph 1.2 mph 67 % 0.00 in
16:55 76.6 °F 65.2 °F 29.82 in SSW 2.1 mph 4.6 mph 68 % 0.00 in
17:00 76.4 °F 65.1 °F 29.82 in West 0.9 mph 3.5 mph 68 % 0.00 in
17:05 76.3 °F 65.0 °F 29.82 in SW 2.4 mph 4.6 mph 68 % 0.00 in
17:10 76.2 °F 64.9 °F 29.82 in Calm     68 % 0.00 in
17:15 76.1 °F 65.2 °F 29.82 in SW 1.8 mph 2.3 mph 69 % 0.00 in
17:21 76.0 °F 65.1 °F 29.82 in SSW 1.0 mph 3.0 mph 69 % 0.00 in
17:26 75.8 °F 65.3 °F 29.82 in South 1.0 mph 4.0 mph 70 % 0.00 in
17:31 75.6 °F 65.1 °F 29.82 in Calm   4.0 mph 70 % 0.00 in
17:36 75.4 °F 65.4 °F 29.83 in Calm   3.0 mph 71 % 0.00 in
17:41 75.2 °F 65.1 °F 29.83 in Calm   2.0 mph 71 % 0.00 in
17:46 74.9 °F 65.3 °F 29.83 in Calm   2.0 mph 72 % 0.00 in
17:51 74.7 °F 65.1 °F 29.83 in Calm   2.0 mph 72 % 0.00 in
17:56 74.5 °F 65.3 °F 29.83 in Calm   2.0 mph 73 % 0.00 in
18:01 74.2 °F 65.0 °F 29.83 in SSE 0.3 mph 2.0 mph 73 % 0.00 in
18:06 74.0 °F 65.2 °F 29.83 in SSE 0.1 mph 1.2 mph 74 % 0.00 in
18:11 73.7 °F 65.3 °F 29.83 in Calm     75 % 0.00 in
18:16 73.4 °F 65.0 °F 29.83 in Calm   1.0 mph 75 % 0.00 in
18:21 73.1 °F 64.7 °F 29.83 in Calm   1.2 mph 75 % 0.00 in
18:26 72.9 °F 64.9 °F 29.84 in Calm   1.2 mph 76 % 0.00 in
18:31 72.6 °F 65.0 °F 29.84 in Calm     77 % 0.00 in
18:36 72.3 °F 64.7 °F 29.84 in SW 0.3 mph 1.2 mph 77 % 0.00 in
18:41 72.0 °F 64.4 °F 29.84 in Calm     77 % 0.00 in
18:46 71.8 °F 64.6 °F 29.84 in SW 0.5 mph   78 % 0.00 in
18:52 71.6 °F 64.4 °F 29.84 in SW 0.6 mph 2.3 mph 78 % 0.00 in
18:57 71.3 °F 64.4 °F 29.84 in WSW 0.8 mph 3.5 mph 79 % 0.00 in
19:02 71.0 °F 64.5 °F 29.85 in WSW 1.1 mph 2.3 mph 80 % 0.00 in
19:07 70.8 °F 64.3 °F 29.85 in SW 0.3 mph 2.3 mph 80 % 0.00 in
19:12 70.5 °F 64.4 °F 29.85 in SSW 0.3 mph 3.5 mph 81 % 0.00 in
19:17 70.3 °F 64.2 °F 29.85 in SSW 0.7 mph 1.2 mph 81 % 0.00 in
19:22 70.1 °F 64.0 °F 29.85 in SSW 0.1 mph 1.2 mph 81 % 0.00 in
19:27 69.9 °F 64.2 °F 29.85 in SSW 0.6 mph 1.0 mph 82 % 0.00 in
19:32 69.7 °F 64.0 °F 29.85 in SW 0.8 mph 3.5 mph 82 % 0.00 in
19:38 69.5 °F 64.1 °F 29.85 in SSW 0.1 mph 2.3 mph 83 % 0.00 in
19:43 69.4 °F 64.0 °F 29.85 in WSW 0.1 mph 2.3 mph 83 % 0.00 in
19:48 69.2 °F 64.2 °F 29.85 in WSW 0.5 mph 2.3 mph 84 % 0.00 in
19:53 69.0 °F 64.0 °F 29.85 in SSW 0.1 mph 1.2 mph 84 % 0.00 in
19:58 68.8 °F 63.8 °F 29.85 in Calm     84 % 0.00 in
20:03 68.6 °F 63.9 °F 29.85 in Calm     85 % 0.00 in
20:08 68.5 °F 63.8 °F 29.85 in SW 1.3 mph 3.5 mph 85 % 0.00 in
20:13 68.4 °F 63.7 °F 29.86 in SW 0.1 mph 1.2 mph 85 % 0.00 in
20:18 68.2 °F 63.5 °F 29.86 in SW 0.6 mph 2.3 mph 85 % 0.00 in
20:29 68.0 °F 63.7 °F 29.86 in SW 0.1 mph 1.2 mph 86 % 0.00 in
20:34 67.9 °F 63.6 °F 29.85 in SW 0.3 mph   86 % 0.00 in
20:39 67.7 °F 63.4 °F 29.85 in SW 0.1 mph 1.0 mph 86 % 0.00 in
20:49 67.6 °F 63.6 °F 29.85 in Calm     87 % 0.00 in
20:54 67.5 °F 63.5 °F 29.86 in Calm     87 % 0.00 in
20:59 67.4 °F 63.4 °F 29.86 in Calm     87 % 0.00 in
21:04 67.3 °F 63.3 °F 29.86 in Calm   1.2 mph 87 % 0.00 in
21:09 67.2 °F 63.2 °F 29.86 in SW 0.9 mph 2.3 mph 87 % 0.00 in
21:14 67.1 °F 63.1 °F 29.86 in SW 1.1 mph 1.2 mph 87 % 0.00 in
21:25 67.0 °F 63.3 °F 29.86 in SW 0.2 mph 1.2 mph 88 % 0.00 in
21:30 66.9 °F 63.2 °F 29.86 in SW 0.1 mph 1.2 mph 88 % 0.00 in
21:35 66.8 °F 63.1 °F 29.85 in Calm     88 % 0.00 in
21:40 66.8 °F 63.5 °F 29.85 in Calm     89 % 0.00 in
21:45 66.7 °F 63.4 °F 29.85 in SW 0.3 mph 1.2 mph 89 % 0.00 in
21:50 66.7 °F 63.4 °F 29.85 in Calm     89 % 0.00 in
21:55 66.6 °F 63.3 °F 29.86 in SW 0.1 mph   89 % 0.00 in
22:05 66.6 °F 63.3 °F 29.86 in Calm     89 % 0.00 in
22:11 66.5 °F 63.2 °F 29.86 in Calm     89 % 0.00 in
22:16 66.5 °F 63.2 °F 29.86 in Calm     89 % 0.00 in
22:21 66.5 °F 63.1 °F 29.87 in Calm   1.0 mph 89 % 0.00 in
22:25 66.4 °F 63.1 °F 29.87 in Calm   2.0 mph 89 % 0.00 in
22:30 66.4 °F 63.1 °F 29.87 in Calm   1.2 mph 89 % 0.00 in
22:36 66.3 °F 63.0 °F 29.87 in Calm   1.0 mph 89 % 0.00 in
22:41 66.3 °F 62.6 °F 29.87 in Calm     88 % 0.00 in
22:46 66.2 °F 62.9 °F 29.87 in Calm   1.0 mph 89 % 0.00 in
22:51 66.1 °F 62.4 °F 29.87 in SW 1.0 mph 1.0 mph 88 % 0.00 in
22:56 66.0 °F 62.4 °F 29.87 in Calm   1.0 mph 88 % 0.00 in
23:01 65.9 °F 62.2 °F 29.87 in SW 0.5 mph 1.2 mph 88 % 0.00 in
23:06 65.9 °F 62.6 °F 29.87 in SW 0.1 mph 1.2 mph 89 % 0.00 in
23:11 65.8 °F 62.5 °F 29.87 in SW 0.8 mph 1.2 mph 89 % 0.00 in
23:16 65.7 °F 62.4 °F 29.88 in Calm     89 % 0.00 in
23:21 65.7 °F 62.4 °F 29.87 in SW 0.1 mph 1.2 mph 89 % 0.00 in
23:26 65.6 °F 62.3 °F 29.87 in SW 0.4 mph 1.2 mph 89 % 0.00 in
23:31 65.6 °F 62.3 °F 29.87 in SW 1.0 mph 2.3 mph 89 % 0.00 in
23:36 65.5 °F 62.2 °F 29.87 in SW 0.6 mph 1.2 mph 89 % 0.00 in
23:41 65.4 °F 62.1 °F 29.88 in SW 0.1 mph 1.2 mph 89 % 0.00 in
23:47 65.4 °F 62.4 °F 29.88 in Calm   1.2 mph 90 % 0.00 in
23:52 65.4 °F 62.4 °F 29.88 in SW 0.3 mph 1.0 mph 90 % 0.00 in
23:57 65.4 °F 62.4 °F 29.87 in SW 0.1 mph 1.2 mph 90 % 0.00 in
Crab Meadow Weather
Compliments of Weather Underground - 3 mb

Script developed by  Jim McMurry - jmcmurry@mwt.net Adapted for the template by  Wim van der Kuil - Leuven-Template.eu

Astronomy: Neptune has at least 11 moons.